map of MNX home
MNX - Airport
Location
City:  Manicoré, Amazonas, Brazil
ICAO:SBMY
IATA:MNX

Details
Type:Airport (Aerodrome, Airfield)
Latitude:5°48'41"S (-5.811380)
Longitude:61°16'42"W (-61.278318)
Datum:WGS 1984
Elevation:174 ft (53 m)
Variation:15.12°W (WMM2015v2 magnetic declination)
-0.15° annual change
Runways:1
Longest:4215 × 98 ft (1285 × 30 m), paved

Time
Time Zone:UTC-4
Local Time:

Weather
METAR:SBMY 041300Z 00000KT CAVOK 27/23 Q1013

Related Locations
Nearby:
Farthest:TMG: 12445 mi / 20029 km
Tommanggong (Tomanggong), 12, MY

Find:

   beyond  
but within

Other Information
Maps:
NOTAMs:
Links:
Sources:

  
  • flag of Brazil
  • flag of Amazonas
  

Sectional Chart

Flight Planning
at skyvector.com

Satellite Image

Google Maps Satellite view

 

Copyright © 2004-2019 Karl L. Swartz. All rights reserved.
The Great Circle Mapper name and logo are trademarks of the Great Circle Mapper.
All other trademarks mentioned herein belong to their respective owners.
Please see credits for attibutions and further copyright information.

  Follow gcmap on Facebook Follow gcmap on Twitter GCmap on LinkedIn

hCard Microformat

Geo Microformat